Terminal Aerodrome Forecast
Issued by NWS Cleveland, OH

Home | Current Version | Previous Version | Text Only | Print | Product List | Glossary Off
Versions: 1 2 3 4 5 6 7 8 9 10 11 12 13 14 15 16 17

000
FTUS41 KCLE 282320
TAFTOL
TAF
KTOL 282320Z 2900/2924 32006KT P6SM SCT060 BKN200
     FM290400 VRB02KT P6SM SCT120 BKN250
     FM291000 15004KT P6SM SCT045 OVC120
     FM291200 15005KT P6SM SCT025 OVC045
      TEMPO 2912/2915 5SM -SHRA BR OVC025
     FM291500 10012KT 6SM -SHRA BR OVC025
     FM291800 10010KT 5SM SHRA BR OVC012=

USA.gov is the U.S. government's official web portal to all federal, state and local government web resources and services.